createdAt,value
2023-01-18T00:00:40.455Z,98682.19
2023-01-18T00:03:13.229Z,98682.19
2023-01-18T00:05:42.297Z,98680.72
2023-01-18T00:08:11.092Z,98681.56
2023-01-18T00:10:40.041Z,98679.84
2023-01-18T00:13:09.671Z,98684.38
2023-01-18T00:15:39.385Z,98681.69
2023-01-18T00:18:07.534Z,98683.78
2023-01-18T00:20:38.419Z,98683.78
2023-01-18T00:23:06.634Z,98692.00
2023-01-18T00:25:34.729Z,98693.81
2023-01-18T00:28:02.917Z,98687.66
2023-01-18T00:30:32.417Z,98686.69
2023-01-18T00:33:01.085Z,98684.28
2023-01-18T00:35:29.338Z,98685.25
2023-01-18T00:37:57.477Z,98683.53
2023-01-18T00:40:28.971Z,98689.91
2023-01-18T00:43:14.687Z,98681.94
2023-01-18T00:45:44.800Z,98683.91
2023-01-18T00:48:12.914Z,98698.38
2023-01-18T00:50:41.038Z,98700.31
2023-01-18T00:53:09.076Z,98700.31
2023-01-18T00:55:37.157Z,98702.28
2023-01-18T00:58:05.404Z,98701.41
2023-01-18T01:00:33.856Z,98700.56
2023-01-18T01:03:04.033Z,98696.16
2023-01-18T01:05:49.851Z,98697.13
2023-01-18T01:08:18.318Z,98699.13
2023-01-18T01:10:47.450Z,98698.38
2023-01-18T01:13:34.756Z,98701.91
2023-01-18T01:16:24.084Z,98702.03
2023-01-18T01:19:11.645Z,98705.81
2023-01-18T01:21:57.598Z,98699.84
2023-01-18T01:24:43.426Z,98706.22
2023-01-18T01:27:11.908Z,98713.53
2023-01-18T01:33:46.283Z,98715.66
2023-01-18T01:36:33.589Z,98714.16
2023-01-18T01:39:01.442Z,98719.53
2023-01-18T01:41:31.230Z,98722.25
2023-01-18T01:44:01.010Z,98724.06
2023-01-18T01:46:39.600Z,98723.09
2023-01-18T01:49:11.239Z,98724.19
2023-01-18T01:51:42.833Z,98732.25
2023-01-18T01:54:14.728Z,98733.22
2023-01-18T01:56:44.618Z,98740.44
2023-01-18T01:59:12.575Z,98736.19
2023-01-18T02:01:44.453Z,98746.84
2023-01-18T02:04:13.144Z,98746.09
2023-01-18T02:06:42.316Z,98748.78
2023-01-18T02:09:13.560Z,98747.94
2023-01-18T02:11:42.937Z,98751.59
2023-01-18T02:14:14.296Z,98749.03
2023-01-18T02:16:56.134Z,98756.13
2023-01-18T02:19:48.756Z,98750.84
2023-01-18T02:22:31.590Z,98755.13
2023-01-18T02:25:22.867Z,98755.88
2023-01-18T02:27:56.830Z,98751.56
2023-01-18T02:30:33.345Z,98755.13
2023-01-18T02:33:08.759Z,98755.25
2023-01-18T02:35:45.963Z,98751.84
2023-01-18T02:38:16.638Z,98750.22
2023-01-18T02:41:03.246Z,98755.50
2023-01-18T02:43:50.818Z,98768.31
2023-01-18T02:46:33.683Z,98770.16
2023-01-18T02:49:08.585Z,98761.38
2023-01-18T02:51:37.082Z,98772.13
2023-01-18T02:54:09.457Z,98771.97
2023-01-18T02:56:42.220Z,98779.34
2023-01-18T02:59:13.783Z,98769.56
2023-01-18T03:01:46.102Z,98772.13
2023-01-18T03:04:19.238Z,98764.28
2023-01-18T03:06:48.917Z,98773.78
2023-01-18T03:09:21.422Z,98776.25
2023-01-18T03:11:56.392Z,98778.81
2023-01-18T03:14:32.829Z,98774.28
2023-01-18T03:17:07.481Z,98779.69
2023-01-18T03:20:00.748Z,98779.69
2023-01-18T03:22:50.168Z,98783.59
2023-01-18T03:25:21.584Z,98776.50
2023-01-18T03:28:10.912Z,98785.44
2023-01-18T03:30:59.261Z,98776.59
2023-01-18T03:33:47.619Z,98779.41
2023-01-18T03:36:20.527Z,98783.06
2023-01-18T03:38:51.322Z,98783.22
2023-01-18T03:41:20.629Z,98786.63
2023-01-18T03:43:50.762Z,98782.22
2023-01-18T03:46:20.858Z,98795.66
2023-01-18T03:48:50.212Z,98802.88
2023-01-18T03:51:26.098Z,98802.03
2023-01-18T03:54:02.083Z,98800.31
2023-01-18T03:56:38.820Z,98810.22
2023-01-18T03:59:08.438Z,98812.16
2023-01-18T04:01:36.975Z,98819.38
2023-01-18T04:04:06.541Z,98824.84
2023-01-18T04:06:34.483Z,98824.13
2023-01-18T04:09:02.313Z,98825.97
2023-01-18T04:11:30.153Z,98819.75
2023-01-18T04:13:58.038Z,98822.53
2023-01-18T04:16:25.807Z,98833.28
2023-01-18T04:18:53.606Z,98835.97
2023-01-18T04:21:22.791Z,98835.13
2023-01-18T04:23:50.688Z,98837.06
2023-01-18T04:26:19.287Z,98832.66
2023-01-18T04:28:47.300Z,98840.81
2023-01-18T04:31:15.168Z,98846.34
2023-01-18T04:33:43.227Z,98839.38
2023-01-18T04:36:11.039Z,98849.38
2023-01-18T04:38:40.210Z,98841.41
2023-01-18T04:41:08.090Z,98850.69
2023-01-18T04:43:36.610Z,98862.41
2023-01-18T04:46:04.587Z,98858.97
2023-01-18T04:48:32.459Z,98855.53
2023-01-18T04:51:00.234Z,98860.19
2023-01-18T04:53:28.161Z,98863.00
2023-01-18T04:55:58.760Z,98878.25
2023-01-18T04:58:26.613Z,98877.63
2023-01-18T05:00:54.445Z,98878.59
2023-01-18T05:03:22.360Z,98875.38
2023-01-18T05:05:50.136Z,98886.13
2023-01-18T05:08:18.365Z,98880.88
2023-01-18T05:10:46.309Z,98892.59
2023-01-18T05:13:15.535Z,98896.25
2023-01-18T05:15:43.288Z,98898.22
2023-01-18T05:18:11.201Z,98903.59
2023-01-18T05:20:39.023Z,98900.03
2023-01-18T05:23:10.938Z,98894.75
2023-01-18T05:25:39.790Z,98912.72
2023-01-18T05:28:08.772Z,98907.34
2023-01-18T05:30:39.862Z,98908.19
2023-01-18T05:33:07.735Z,98903.91
2023-01-18T05:35:35.757Z,98916.38
2023-01-18T05:38:03.702Z,98922.59
2023-01-18T05:40:31.514Z,98927.13
2023-01-18T05:42:59.754Z,98928.84
2023-01-18T05:45:27.818Z,98930.56
2023-01-18T05:47:57.020Z,98934.09
2023-01-18T05:50:24.773Z,98930.56
2023-01-18T05:52:52.577Z,98932.28
2023-01-18T05:55:20.347Z,98943.88
2023-01-18T05:57:48.690Z,98949.38
2023-01-18T06:00:16.911Z,98960.13
2023-01-18T06:02:44.695Z,98956.56
2023-01-18T06:05:13.863Z,98958.38
2023-01-18T06:07:42.200Z,98966.44
2023-01-18T06:10:11.613Z,98962.81
2023-01-18T06:12:41.997Z,98970.00
2023-01-18T06:15:11.835Z,98974.41
2023-01-18T06:17:39.870Z,98983.44
2023-01-18T06:20:09.009Z,98984.41
2023-01-18T06:22:38.186Z,98990.63
2023-01-18T06:25:07.048Z,98983.53
2023-01-18T06:27:34.909Z,98991.69
2023-01-18T06:30:04.877Z,98989.97
2023-01-18T06:32:32.816Z,98992.81
2023-01-18T06:35:00.689Z,98998.28
2023-01-18T06:37:28.458Z,99003.75
2023-01-18T06:39:57.603Z,99005.59
2023-01-18T06:42:25.447Z,99012.03
2023-01-18T06:44:53.211Z,99006.78
2023-01-18T06:47:21.133Z,99012.25
2023-01-18T06:49:48.950Z,99013.22
2023-01-18T06:52:17.983Z,99019.56
2023-01-18T06:54:45.753Z,99024.06
2023-01-18T06:57:15.649Z,99021.38
2023-01-18T06:59:43.406Z,99026.00
2023-01-18T07:02:15.226Z,99030.31
2023-01-18T07:04:45.298Z,99027.72
2023-01-18T07:07:13.254Z,99040.19
2023-01-18T07:09:41.069Z,99038.47
2023-01-18T07:12:09.359Z,99040.28
2023-01-18T07:14:38.547Z,99044.59
2023-01-18T07:17:06.320Z,99043.75
2023-01-18T07:19:34.102Z,99050.06
2023-01-18T07:22:02.203Z,99058.25
2023-01-18T07:24:31.710Z,99065.34
2023-01-18T07:27:00.591Z,99069.94
2023-01-18T07:29:28.817Z,99079.00
2023-01-18T07:31:58.379Z,99072.75
2023-01-18T07:34:26.194Z,99081.78
2023-01-18T07:36:54.317Z,99086.28
2023-01-18T07:39:22.113Z,99083.72
2023-01-18T07:41:49.951Z,99090.91
2023-01-18T07:44:18.999Z,99098.09
2023-01-18T07:46:46.790Z,99094.66
2023-01-18T07:49:15.935Z,99097.34
2023-01-18T07:51:43.784Z,99098.31
2023-01-18T07:54:11.614Z,99102.84
2023-01-18T07:56:40.320Z,99104.75
2023-01-18T07:59:08.434Z,99110.03
2023-01-18T08:01:36.408Z,99114.53
2023-01-18T08:04:05.224Z,99108.31
2023-01-18T08:06:34.500Z,99120.78
2023-01-18T08:09:02.413Z,99118.97
2023-01-18T08:11:30.308Z,99124.31
2023-01-18T08:13:58.152Z,99122.47
2023-01-18T08:16:26.814Z,99124.31
2023-01-18T08:18:54.629Z,99127.00
2023-01-18T08:21:22.399Z,99131.53
2023-01-18T08:23:54.195Z,99144.81
2023-01-18T08:26:22.139Z,99145.81
2023-01-18T08:28:49.900Z,99153.97
2023-01-18T08:31:21.555Z,99152.00
2023-01-18T08:33:50.906Z,99157.53
2023-01-18T08:36:21.937Z,99159.25
2023-01-18T08:38:52.098Z,99165.44
2023-01-18T08:41:20.645Z,99172.66
2023-01-18T08:43:50.852Z,99180.59
2023-01-18T08:46:22.654Z,99181.56
2023-01-18T08:48:53.042Z,99192.22
2023-01-18T08:51:22.961Z,99200.16
2023-01-18T08:53:54.223Z,99195.66
2023-01-18T08:56:22.286Z,99201.91
2023-01-18T08:58:52.070Z,99209.09
2023-01-18T09:01:20.500Z,99207.16
2023-01-18T09:03:50.459Z,99210.72
2023-01-18T09:06:18.685Z,99217.91
2023-01-18T09:08:48.592Z,99225.75
2023-01-18T09:11:19.042Z,99214.91
2023-01-18T09:14:00.194Z,99220.28
2023-01-18T09:16:28.681Z,99229.88
2023-01-18T09:18:56.681Z,99233.09
2023-01-18T09:21:25.146Z,99232.91
2023-01-18T09:23:52.946Z,99241.50
2023-01-18T09:26:22.204Z,99239.38
2023-01-18T09:28:55.592Z,99246.25
2023-01-18T09:31:25.394Z,99240.44
2023-01-18T09:33:54.356Z,99250.81
2023-01-18T09:36:26.943Z,99247.69
2023-01-18T09:38:55.512Z,99252.28
2023-01-18T09:41:33.079Z,99258.53
2023-01-18T09:44:03.853Z,99265.13
2023-01-18T09:46:35.874Z,99263.63
2023-01-18T09:49:06.145Z,99258.25
2023-01-18T09:51:43.601Z,99258.38
2023-01-18T09:54:21.529Z,99253.50
2023-01-18T09:56:58.832Z,99263.75
2023-01-18T09:59:35.288Z,99274.19
2023-01-18T10:02:04.658Z,99272.16
2023-01-18T10:04:38.677Z,99277.00
2023-01-18T10:07:09.665Z,99287.41
2023-01-18T10:09:41.789Z,99282.56
2023-01-18T10:12:23.622Z,99282.13
2023-01-18T10:14:56.504Z,99283.63
2023-01-18T10:17:28.733Z,99286.88
2023-01-18T10:19:56.590Z,99276.97
2023-01-18T10:22:30.177Z,99283.63
2023-01-18T10:25:03.519Z,99282.41
2023-01-18T10:27:52.881Z,99283.81
2023-01-18T10:30:33.218Z,99285.41
2023-01-18T10:33:03.655Z,99287.06
2023-01-18T10:35:35.594Z,99293.06
2023-01-18T10:38:08.275Z,99290.16
2023-01-18T10:40:37.284Z,99295.44
2023-01-18T10:43:12.243Z,99301.34
2023-01-18T10:45:40.151Z,99294.13
2023-01-18T10:48:29.002Z,99296.50
2023-01-18T10:50:58.676Z,99309.00
2023-01-18T10:53:31.029Z,99317.72
2023-01-18T10:56:03.519Z,99317.50
2023-01-18T10:58:41.658Z,99317.25
2023-01-18T11:01:17.050Z,99320.59
2023-01-18T11:03:48.618Z,99322.22
2023-01-18T11:06:17.250Z,99317.53
2023-01-18T11:08:45.364Z,99322.63
2023-01-18T11:11:19.664Z,99321.28
2023-01-18T11:13:50.984Z,99330.03
2023-01-18T11:16:20.931Z,99324.28
2023-01-18T11:19:02.998Z,99330.94
2023-01-18T11:21:45.560Z,99332.44
2023-01-18T11:24:17.860Z,99331.34
2023-01-18T11:26:55.758Z,99332.47
2023-01-18T11:29:31.189Z,99336.56
2023-01-18T11:32:03.728Z,99328.88
2023-01-18T11:34:33.765Z,99329.38
2023-01-18T11:37:04.128Z,99326.94
2023-01-18T11:39:34.432Z,99325.53
2023-01-18T11:42:22.005Z,99323.09
2023-01-18T11:45:02.060Z,99325.22
2023-01-18T11:47:37.121Z,99331.72
2023-01-18T11:50:22.489Z,99326.59
2023-01-18T11:52:54.644Z,99333.34
2023-01-18T11:55:31.200Z,99326.59
2023-01-18T11:58:00.739Z,99319.63
2023-01-18T12:00:43.758Z,99319.88
2023-01-18T12:03:49.004Z,99324.19
2023-01-18T12:06:29.102Z,99327.03
2023-01-18T12:09:09.070Z,99328.25
2023-01-18T12:11:50.092Z,99326.78
2023-01-18T12:14:37.745Z,99326.38
2023-01-18T12:17:25.245Z,99330.47
2023-01-18T12:20:10.039Z,99324.66
2023-01-18T12:23:22.467Z,99328.13
2023-01-18T12:26:15.211Z,99325.78
2023-01-18T12:29:00.074Z,99330.81
2023-01-18T12:31:46.542Z,99324.78
2023-01-18T12:34:20.526Z,99324.53
2023-01-18T12:37:13.376Z,99323.19
2023-01-18T12:40:01.753Z,99327.38
2023-01-18T12:42:44.615Z,99333.28
2023-01-18T12:45:22.343Z,99328.34
2023-01-18T12:48:02.246Z,99335.06
2023-01-18T12:50:35.544Z,99336.56
2023-01-18T12:53:07.836Z,99334.31
2023-01-18T12:55:39.766Z,99334.19
2023-01-18T12:58:09.714Z,99335.66
2023-01-18T13:00:40.444Z,99345.13
2023-01-18T13:03:14.227Z,99341.16
2023-01-18T13:05:52.515Z,99340.78
2023-01-18T13:08:30.689Z,99343.22
2023-01-18T13:11:06.762Z,99343.84
2023-01-18T13:13:36.166Z,99345.56
2023-01-18T13:16:17.461Z,99341.59
2023-01-18T13:18:54.666Z,99342.44
2023-01-18T13:21:35.613Z,99343.19
2023-01-18T13:24:12.044Z,99344.06
2023-01-18T13:26:40.200Z,99346.88
2023-01-18T13:29:17.253Z,99343.19
2023-01-18T13:31:45.928Z,99346.03
2023-01-18T13:34:28.620Z,99337.91
2023-01-18T13:37:13.344Z,99342.84
2023-01-18T13:39:48.087Z,99339.28
2023-01-18T13:42:34.138Z,99340.38
2023-01-18T13:45:15.855Z,99338.94
2023-01-18T13:47:52.740Z,99344.59
2023-01-18T13:50:45.174Z,99344.13
2023-01-18T13:53:29.530Z,99346.34
2023-01-18T13:56:27.517Z,99360.16
2023-01-18T13:59:17.550Z,99363.97
2023-01-18T14:01:49.770Z,99372.31
2023-01-18T14:04:25.411Z,99371.59
2023-01-18T14:06:54.420Z,99372.69
2023-01-18T14:09:36.209Z,99383.53
2023-01-18T14:12:04.913Z,99382.03
2023-01-18T14:14:35.356Z,99374.94
2023-01-18T14:17:14.223Z,99377.75
2023-01-18T14:20:05.272Z,99383.41
2023-01-18T14:22:43.729Z,99381.69
2023-01-18T14:25:35.633Z,99389.06
2023-01-18T14:28:10.234Z,99389.31
2023-01-18T14:30:41.050Z,99389.44
2023-01-18T14:33:15.493Z,99401.13
2023-01-18T14:35:52.751Z,99407.50
2023-01-18T14:38:21.472Z,99408.59
2023-01-18T14:40:53.664Z,99411.31
2023-01-18T14:43:28.130Z,99419.66
2023-01-18T14:46:00.421Z,99422.38
2023-01-18T14:48:31.551Z,99420.88
2023-01-18T14:51:00.616Z,99427.16
2023-01-18T14:53:34.422Z,99431.69
2023-01-18T14:56:07.191Z,99433.53
2023-01-18T14:58:38.968Z,99437.34
2023-01-18T15:01:09.370Z,99437.22
2023-01-18T15:03:37.593Z,99437.47
2023-01-18T15:06:13.850Z,99439.19
2023-01-18T15:08:43.456Z,99443.00
2023-01-18T15:11:14.450Z,99441.28
2023-01-18T15:13:49.044Z,99445.94
2023-01-18T15:16:20.111Z,99452.47
2023-01-18T15:18:49.696Z,99456.16
2023-01-18T15:21:21.841Z,99467.06
2023-01-18T15:23:52.500Z,99474.44
2023-01-18T15:26:37.589Z,99478.13
2023-01-18T15:29:15.139Z,99476.38
2023-01-18T15:31:48.529Z,99474.81
2023-01-18T15:34:17.954Z,99473.19
2023-01-18T15:36:46.256Z,99473.31
2023-01-18T15:39:14.548Z,99481.53
2023-01-18T15:41:45.076Z,99479.69
2023-01-18T15:44:35.698Z,99479.84
2023-01-18T15:47:14.428Z,99479.31
2023-01-18T15:49:45.120Z,99481.16
2023-01-18T15:52:13.060Z,99480.41
2023-01-18T15:54:41.188Z,99476.00
2023-01-18T15:57:18.638Z,99482.28
2023-01-18T15:59:47.582Z,99487.91
2023-01-18T16:02:19.816Z,99486.31
2023-01-18T16:04:48.091Z,99493.81
2023-01-18T16:07:35.718Z,99492.81
2023-01-18T16:10:30.565Z,99494.03
2023-01-18T16:13:37.358Z,99495.97
2023-01-18T16:16:24.015Z,99498.94
2023-01-18T16:19:01.076Z,99500.88
2023-01-18T16:21:40.283Z,99499.03
2023-01-18T16:24:20.669Z,99509.97
2023-01-18T16:26:48.694Z,99508.47
2023-01-18T16:29:16.786Z,99498.66
2023-01-18T16:31:46.366Z,99505.03
2023-01-18T16:34:23.681Z,99506.00
2023-01-18T16:36:53.030Z,99518.88
2023-01-18T16:39:23.276Z,99517.16
2023-01-18T16:41:54.593Z,99515.44
2023-01-18T16:44:22.729Z,99525.50
2023-01-18T16:46:53.823Z,99529.19
2023-01-18T16:49:21.818Z,99529.28
2023-01-18T16:51:50.724Z,99532.97
2023-01-18T16:54:20.037Z,99533.94
2023-01-18T16:56:48.436Z,99529.66
2023-01-18T16:59:18.206Z,99532.47
2023-01-18T17:01:46.992Z,99528.13
2023-01-18T17:04:16.911Z,99537.09
2023-01-18T17:06:45.535Z,99537.22
2023-01-18T17:09:21.214Z,99533.66
2023-01-18T17:11:49.869Z,99537.56
2023-01-18T17:14:18.212Z,99538.53
2023-01-18T17:16:47.514Z,99539.50
2023-01-18T17:19:19.568Z,99541.34
2023-01-18T17:21:48.459Z,99541.56
2023-01-18T17:24:17.459Z,99543.44
2023-01-18T17:26:45.318Z,99540.84
2023-01-18T17:29:18.088Z,99544.41
2023-01-18T17:31:52.167Z,99548.28
2023-01-18T17:34:27.993Z,99551.84
2023-01-18T17:36:57.221Z,99556.50
2023-01-18T17:39:32.079Z,99559.34
2023-01-18T17:42:14.292Z,99559.44
2023-01-18T17:44:47.135Z,99563.13
2023-01-18T17:47:16.072Z,99570.34
2023-01-18T17:49:45.207Z,99567.75
2023-01-18T17:52:13.151Z,99575.97
2023-01-18T17:54:40.929Z,99567.13
2023-01-18T17:57:11.265Z,99581.59
2023-01-18T17:59:39.149Z,99575.34
2023-01-18T18:02:09.369Z,99584.41
2023-01-18T18:04:37.398Z,99584.50
2023-01-18T18:07:06.610Z,99587.31
2023-01-18T18:09:38.679Z,99603.63
2023-01-18T18:12:07.453Z,99600.19
2023-01-18T18:14:35.414Z,99593.06
2023-01-18T18:17:03.390Z,99597.59
2023-01-18T18:19:32.318Z,99602.25
2023-01-18T18:22:00.227Z,99605.91
2023-01-18T18:24:29.456Z,99599.66
2023-01-18T18:26:57.293Z,99615.94
2023-01-18T18:29:25.095Z,99603.44
2023-01-18T18:31:53.168Z,99616.06
2023-01-18T18:34:20.964Z,99621.56
2023-01-18T18:36:48.781Z,99622.53
2023-01-18T18:39:16.627Z,99618.13
2023-01-18T18:41:46.979Z,99620.81
2023-01-18T18:44:14.939Z,99620.06
2023-01-18T18:46:43.032Z,99624.72
2023-01-18T18:49:10.994Z,99623.84
2023-01-18T18:51:38.881Z,99631.09
2023-01-18T18:54:07.212Z,99641.88
2023-01-18T18:56:35.113Z,99643.81
2023-01-18T18:59:04.510Z,99644.69
2023-01-18T19:01:32.539Z,99652.00
2023-01-18T19:04:00.851Z,99654.72
2023-01-18T19:06:29.043Z,99652.13
2023-01-18T19:08:57.319Z,99658.47
2023-01-18T19:11:25.206Z,99665.69
2023-01-18T19:13:55.876Z,99667.44
2023-01-18T19:16:25.300Z,99666.81
2023-01-18T19:18:53.347Z,99670.47
2023-01-18T19:21:21.306Z,99672.31
2023-01-18T19:23:49.181Z,99678.66
2023-01-18T19:26:18.204Z,99683.19
2023-01-18T19:28:47.048Z,99679.72
2023-01-18T19:31:15.044Z,99690.53
2023-01-18T19:33:44.400Z,99690.53
2023-01-18T19:36:15.349Z,99689.66
2023-01-18T19:38:46.128Z,99698.75
2023-01-18T19:41:15.220Z,99687.19
2023-01-18T19:43:43.109Z,99696.25
2023-01-18T19:46:13.382Z,99700.78
2023-01-18T19:48:41.327Z,99704.44
2023-01-18T19:51:21.095Z,99700.78
2023-01-18T19:53:50.638Z,99702.72
2023-01-18T19:56:18.547Z,99707.25
2023-01-18T19:58:46.408Z,99700.97
2023-01-18T20:01:30.205Z,99706.38
2023-01-18T20:04:02.315Z,99713.72
2023-01-18T20:06:31.535Z,99717.28
2023-01-18T20:08:59.350Z,99719.13
2023-01-18T20:11:27.184Z,99716.44
2023-01-18T20:13:55.911Z,99722.78
2023-01-18T20:16:24.531Z,99727.31
2023-01-18T20:18:52.950Z,99726.44
2023-01-18T20:21:21.463Z,99723.75
2023-01-18T20:23:50.807Z,99727.31
2023-01-18T20:26:31.090Z,99728.38
2023-01-18T20:29:06.279Z,99723.94
2023-01-18T20:31:34.615Z,99730.22
2023-01-18T20:34:02.999Z,99724.81
2023-01-18T20:36:31.054Z,99731.19
2023-01-18T20:39:00.337Z,99732.91
2023-01-18T20:41:28.150Z,99730.31
2023-01-18T20:43:57.122Z,99738.41
2023-01-18T20:46:25.226Z,99732.16
2023-01-18T20:48:53.100Z,99735.69
2023-01-18T20:51:23.582Z,99747.34
2023-01-18T20:53:51.431Z,99741.09
2023-01-18T20:56:29.186Z,99742.84
2023-01-18T20:58:57.893Z,99743.94
2023-01-18T21:01:31.528Z,99743.78
2023-01-18T21:04:00.628Z,99735.69
2023-01-18T21:06:29.308Z,99746.50
2023-01-18T21:08:58.840Z,99742.84
2023-01-18T21:11:28.760Z,99741.97
2023-01-18T21:13:58.996Z,99748.22
2023-01-18T21:16:27.699Z,99743.78
2023-01-18T21:18:58.748Z,99754.47
2023-01-18T21:21:29.553Z,99756.31
2023-01-18T21:23:57.364Z,99755.44
2023-01-18T21:26:25.263Z,99759.88
2023-01-18T21:28:54.854Z,99757.94
2023-01-18T21:31:23.416Z,99759.88
2023-01-18T21:33:54.805Z,99761.50
2023-01-18T21:36:23.022Z,99760.66
2023-01-18T21:38:51.290Z,99763.34
2023-01-18T21:41:36.475Z,99762.38
2023-01-18T21:44:23.573Z,99764.22
2023-01-18T21:46:54.598Z,99761.59
2023-01-18T21:50:04.151Z,99757.09
2023-01-18T21:52:46.720Z,99756.22
2023-01-18T21:55:15.738Z,99761.59
2023-01-18T21:57:43.848Z,99764.22
2023-01-18T22:00:14.241Z,99765.84
2023-01-18T22:02:42.156Z,99760.44
2023-01-18T22:05:10.459Z,99767.53
2023-01-18T22:07:38.433Z,99761.19
2023-01-18T22:10:07.421Z,99761.09
2023-01-18T22:12:38.853Z,99767.34
2023-01-18T22:15:07.733Z,99779.88
2023-01-18T22:17:36.863Z,99768.97
2023-01-18T22:20:05.209Z,99780.72
2023-01-18T22:22:32.940Z,99779.78
2023-01-18T22:25:02.168Z,99790.47
2023-01-18T22:27:30.208Z,99794.84
2023-01-18T22:29:58.045Z,99795.72
2023-01-18T22:32:25.834Z,99793.88
2023-01-18T22:34:55.045Z,99794.66
2023-01-18T22:37:23.434Z,99797.44
2023-01-18T22:39:51.671Z,99794.66
2023-01-18T22:42:19.521Z,99807.19
2023-01-18T22:44:47.428Z,99802.66
2023-01-18T22:47:15.451Z,99811.63
2023-01-18T22:49:43.360Z,99808.91
2023-01-18T22:52:12.456Z,99812.38
2023-01-18T22:54:40.293Z,99810.66
2023-01-18T22:57:08.092Z,99812.38
2023-01-18T22:59:36.060Z,99823.91
2023-01-18T23:02:03.862Z,99821.22
2023-01-18T23:04:33.935Z,99825.63
2023-01-18T23:07:01.799Z,99833.72
2023-01-18T23:09:31.237Z,99830.06
2023-01-18T23:11:59.070Z,99835.56
2023-01-18T23:14:44.336Z,99823.81
2023-01-18T23:17:30.613Z,99825.63
2023-01-18T23:19:58.518Z,99828.34
2023-01-18T23:22:26.334Z,99826.50
2023-01-18T23:24:55.568Z,99821.88
2023-01-18T23:27:23.988Z,99825.53
2023-01-18T23:29:56.672Z,99828.25
2023-01-18T23:32:27.229Z,99824.69
2023-01-18T23:34:55.308Z,99825.44
2023-01-18T23:37:23.169Z,99825.34
2023-01-18T23:40:08.667Z,99826.31
2023-01-18T23:42:55.373Z,99833.53
2023-01-18T23:45:40.653Z,99831.81
2023-01-18T23:48:26.812Z,99837.19
2023-01-18T23:51:12.133Z,99840.88
2023-01-18T23:53:57.417Z,99840.88
2023-01-18T23:56:25.286Z,99844.44
2023-01-18T23:58:54.585Z,99837.00
